createdAt,value
2023-03-15T00:00:55.849Z,1.23
2023-03-15T00:03:24.434Z,1.18
2023-03-15T00:05:52.317Z,1.17
2023-03-15T00:08:20.027Z,1.04
2023-03-15T00:10:47.963Z,1.10
2023-03-15T00:13:16.385Z,1.02
2023-03-15T00:15:48.608Z,1.03
2023-03-15T00:18:16.725Z,0.98
2023-03-15T00:20:43.228Z,1.05
2023-03-15T00:23:09.907Z,1.10
2023-03-15T00:25:37.334Z,1.10
2023-03-15T00:28:03.947Z,1.06
2023-03-15T00:30:30.442Z,1.00
2023-03-15T00:32:56.919Z,1.04
2023-03-15T00:35:23.976Z,0.92
2023-03-15T00:38:00.244Z,0.75
2023-03-15T00:40:26.928Z,0.60
2023-03-15T00:42:53.381Z,0.47
2023-03-15T00:45:21.242Z,0.32
2023-03-15T00:47:52.403Z,0.31
2023-03-15T00:50:19.914Z,0.32
2023-03-15T00:52:46.368Z,0.32
2023-03-15T00:55:15.510Z,0.29
2023-03-15T00:57:44.285Z,0.23
2023-03-15T01:00:14.228Z,0.24
2023-03-15T01:02:41.138Z,0.16
2023-03-15T01:05:09.626Z,-0.08
2023-03-15T01:07:36.334Z,-0.07
2023-03-15T01:10:04.507Z,-0.11
2023-03-15T01:12:32.643Z,-0.15
2023-03-15T01:15:00.327Z,-0.24
2023-03-15T01:17:26.830Z,-0.27
2023-03-15T01:19:53.387Z,-0.30
2023-03-15T01:22:20.347Z,-0.34
2023-03-15T01:24:47.019Z,-0.40
2023-03-15T01:27:13.603Z,-0.49
2023-03-15T01:29:40.022Z,-0.37
2023-03-15T01:32:06.806Z,-0.46
2023-03-15T01:34:33.967Z,-0.43
2023-03-15T01:37:00.901Z,-0.54
2023-03-15T01:39:27.336Z,-0.41
2023-03-15T01:41:53.804Z,-0.46
2023-03-15T01:44:20.293Z,-0.56
2023-03-15T01:46:46.860Z,-0.72
2023-03-15T01:49:30.929Z,-0.71
2023-03-15T01:52:12.855Z,-0.73
2023-03-15T01:54:39.216Z,-0.69
2023-03-15T01:57:08.668Z,-0.62
2023-03-15T01:59:39.108Z,-0.54
2023-03-15T02:02:07.418Z,-0.68
2023-03-15T02:04:46.564Z,-0.71
2023-03-15T02:07:16.889Z,-0.71
2023-03-15T02:10:05.702Z,-0.79
2023-03-15T02:12:36.517Z,-0.74
2023-03-15T02:15:05.627Z,-0.81
2023-03-15T02:17:41.215Z,-0.86
2023-03-15T02:20:13.617Z,-0.98
2023-03-15T02:22:58.988Z,-0.95
2023-03-15T02:25:31.139Z,-0.98
2023-03-15T02:27:58.423Z,-0.96
2023-03-15T02:30:25.066Z,-0.80
2023-03-15T02:32:51.564Z,-0.79
2023-03-15T02:35:26.417Z,-0.78
2023-03-15T02:37:52.858Z,-0.71
2023-03-15T02:40:22.174Z,-0.79
2023-03-15T02:42:53.924Z,-0.86
2023-03-15T02:45:21.323Z,-0.92
2023-03-15T02:47:49.605Z,-0.97
2023-03-15T02:50:16.747Z,-0.94
2023-03-15T02:52:43.234Z,-1.03
2023-03-15T02:55:09.933Z,-0.93
2023-03-15T02:57:37.672Z,-0.77
2023-03-15T03:00:13.198Z,-0.69
2023-03-15T03:02:45.295Z,-0.74
2023-03-15T03:05:13.278Z,-0.67
2023-03-15T03:07:39.989Z,-0.69
2023-03-15T03:10:06.849Z,-0.59
2023-03-15T03:12:33.331Z,-0.67
2023-03-15T03:14:59.734Z,-0.63
2023-03-15T03:17:26.216Z,-0.56
2023-03-15T03:19:52.878Z,-0.54
2023-03-15T03:22:19.724Z,-0.47
2023-03-15T03:24:46.481Z,-0.37
2023-03-15T03:27:14.955Z,-0.26
2023-03-15T03:29:41.953Z,-0.17
2023-03-15T03:32:08.920Z,0.01
2023-03-15T03:34:36.067Z,0.14
2023-03-15T03:37:02.884Z,0.23
2023-03-15T03:39:29.264Z,0.36
2023-03-15T03:41:55.862Z,0.52
2023-03-15T03:44:22.239Z,0.73
2023-03-15T03:46:48.716Z,0.71
2023-03-15T03:49:15.246Z,0.84
2023-03-15T03:51:41.666Z,0.60
2023-03-15T03:54:08.184Z,0.67
2023-03-15T03:56:34.846Z,0.55
2023-03-15T03:59:01.227Z,0.78
2023-03-15T04:01:27.861Z,0.69
2023-03-15T04:03:54.296Z,0.59
2023-03-15T04:06:22.600Z,0.63
2023-03-15T04:08:49.087Z,0.42
2023-03-15T04:11:17.781Z,0.47
2023-03-15T04:13:47.412Z,0.49
2023-03-15T04:16:14.657Z,0.67
2023-03-15T04:18:41.613Z,0.82
2023-03-15T04:21:10.657Z,0.84
2023-03-15T04:23:38.150Z,0.75
2023-03-15T04:26:08.079Z,0.69
2023-03-15T04:28:34.644Z,0.79
2023-03-15T04:31:01.069Z,0.85
2023-03-15T04:33:29.030Z,0.82
2023-03-15T04:35:55.824Z,0.71
2023-03-15T04:38:26.550Z,0.72
2023-03-15T04:40:54.845Z,0.84
2023-03-15T04:43:22.146Z,0.71
2023-03-15T04:45:48.688Z,0.73
2023-03-15T04:48:15.127Z,0.65
2023-03-15T04:50:41.742Z,0.85
2023-03-15T04:53:08.163Z,0.86
2023-03-15T04:55:34.852Z,0.95
2023-03-15T04:58:01.244Z,1.11
2023-03-15T05:00:27.672Z,1.15
2023-03-15T05:02:55.142Z,1.13
2023-03-15T05:05:23.663Z,1.04
2023-03-15T05:07:50.422Z,1.13
2023-03-15T05:10:17.380Z,0.84
2023-03-15T05:12:43.873Z,0.91
2023-03-15T05:15:10.799Z,0.91
2023-03-15T05:17:37.541Z,0.87
2023-03-15T05:20:10.828Z,0.86
2023-03-15T05:22:38.236Z,0.98
2023-03-15T05:25:05.016Z,0.81
2023-03-15T05:27:33.985Z,0.74
2023-03-15T05:30:04.107Z,0.69
2023-03-15T05:32:34.244Z,0.74
2023-03-15T05:35:05.349Z,0.55
2023-03-15T05:37:32.800Z,0.63
2023-03-15T05:39:59.806Z,0.54
2023-03-15T05:42:26.340Z,0.39
2023-03-15T05:44:57.103Z,0.36
2023-03-15T05:47:24.132Z,0.23
2023-03-15T05:49:50.620Z,0.15
2023-03-15T05:52:17.156Z,0.26
2023-03-15T05:54:43.845Z,0.23
2023-03-15T05:57:11.568Z,0.11
2023-03-15T05:59:38.031Z,0.15
2023-03-15T06:02:04.769Z,0.43
2023-03-15T06:04:31.258Z,0.35
2023-03-15T06:06:58.723Z,0.55
2023-03-15T06:09:25.295Z,0.62
2023-03-15T06:11:52.241Z,0.83
2023-03-15T06:14:18.944Z,0.90
2023-03-15T06:16:45.450Z,0.97
2023-03-15T06:19:11.968Z,1.10
2023-03-15T06:21:38.998Z,0.91
2023-03-15T06:24:06.518Z,0.95
2023-03-15T06:26:32.999Z,1.14
2023-03-15T06:28:59.424Z,1.18
2023-03-15T06:31:26.061Z,1.21
2023-03-15T06:33:52.456Z,1.23
2023-03-15T06:36:18.931Z,1.23
2023-03-15T06:38:45.349Z,1.03
2023-03-15T06:41:15.264Z,0.99
2023-03-15T06:43:41.961Z,1.14
2023-03-15T06:46:08.463Z,1.29
2023-03-15T06:48:34.989Z,1.31
2023-03-15T06:51:01.542Z,1.20
2023-03-15T06:53:27.978Z,1.40
2023-03-15T06:55:54.708Z,1.60
2023-03-15T06:58:22.253Z,1.48
2023-03-15T07:00:50.460Z,1.80
2023-03-15T07:03:16.957Z,1.67
2023-03-15T07:05:44.254Z,1.71
2023-03-15T07:08:10.632Z,1.81
2023-03-15T07:10:37.368Z,1.50
2023-03-15T07:13:05.478Z,1.84
2023-03-15T07:15:31.926Z,2.12
2023-03-15T07:17:58.339Z,2.54
2023-03-15T07:20:24.954Z,2.52
2023-03-15T07:22:51.729Z,2.46
2023-03-15T07:25:23.755Z,2.54
2023-03-15T07:27:51.021Z,2.33
2023-03-15T07:30:18.394Z,2.34
2023-03-15T07:32:45.324Z,1.51
2023-03-15T07:35:13.483Z,1.51
2023-03-15T07:37:44.280Z,1.44
2023-03-15T07:40:12.683Z,1.75
2023-03-15T07:42:43.779Z,1.93
2023-03-15T07:45:10.980Z,2.23
2023-03-15T07:47:37.410Z,2.66
2023-03-15T07:50:05.935Z,3.02
2023-03-15T07:52:32.747Z,3.19
2023-03-15T07:54:59.266Z,3.30
2023-03-15T07:57:28.366Z,3.38
2023-03-15T07:59:56.076Z,3.10
2023-03-15T08:02:22.698Z,2.80
2023-03-15T08:04:51.075Z,2.76
2023-03-15T08:07:17.685Z,2.55
2023-03-15T08:09:44.309Z,2.67
2023-03-15T08:12:11.022Z,3.62
2023-03-15T08:14:37.715Z,4.70
2023-03-15T08:17:04.610Z,5.38
2023-03-15T08:19:31.017Z,6.62
2023-03-15T08:21:57.602Z,6.01
2023-03-15T08:24:24.132Z,7.04
2023-03-15T08:26:51.255Z,6.09
2023-03-15T08:29:17.856Z,6.55
2023-03-15T08:31:44.472Z,5.70
2023-03-15T08:34:12.124Z,5.32
2023-03-15T08:36:38.670Z,5.15
2023-03-15T08:39:05.625Z,5.92
2023-03-15T08:41:32.155Z,6.43
2023-03-15T08:43:58.891Z,6.73
2023-03-15T08:46:26.440Z,6.73
2023-03-15T08:48:53.190Z,7.28
2023-03-15T08:51:21.617Z,6.87
2023-03-15T08:53:48.247Z,6.51
2023-03-15T08:56:14.859Z,5.97
2023-03-15T08:58:41.692Z,5.85
2023-03-15T09:01:10.615Z,5.11
2023-03-15T09:03:37.091Z,4.98
2023-03-15T09:06:03.619Z,4.59
2023-03-15T09:08:33.242Z,4.50
2023-03-15T09:11:01.372Z,4.47
2023-03-15T09:13:28.427Z,4.91
2023-03-15T09:15:56.969Z,5.91
2023-03-15T09:18:24.530Z,6.82
2023-03-15T09:20:51.288Z,6.72
2023-03-15T09:23:17.820Z,7.02
2023-03-15T09:25:44.272Z,7.88
2023-03-15T09:28:11.879Z,8.32
2023-03-15T09:30:41.120Z,8.61
2023-03-15T09:33:08.365Z,8.68
2023-03-15T09:35:34.997Z,8.79
2023-03-15T09:38:03.859Z,8.63
2023-03-15T09:40:38.636Z,8.28
2023-03-15T09:43:08.968Z,8.50
2023-03-15T09:46:08.534Z,7.67
2023-03-15T09:48:44.063Z,6.87
2023-03-15T09:51:16.504Z,6.88
2023-03-15T09:53:54.552Z,6.26
2023-03-15T09:56:31.177Z,6.32
2023-03-15T09:59:04.680Z,7.21
2023-03-15T10:01:41.886Z,8.17
2023-03-15T10:04:18.734Z,8.71
2023-03-15T10:06:49.914Z,9.17
2023-03-15T10:09:21.862Z,9.65
2023-03-15T10:12:10.573Z,10.94
2023-03-15T10:15:18.855Z,12.17
2023-03-15T10:17:48.232Z,11.90
2023-03-15T10:20:24.438Z,10.72
2023-03-15T10:23:32.730Z,9.48
2023-03-15T10:26:00.334Z,9.45
2023-03-15T10:28:34.776Z,9.50
2023-03-15T10:31:21.586Z,9.82
2023-03-15T10:33:54.000Z,11.40
2023-03-15T10:36:23.078Z,11.82
2023-03-15T10:38:50.629Z,10.57
2023-03-15T10:41:41.251Z,9.38
2023-03-15T10:44:18.208Z,9.65
2023-03-15T10:47:21.414Z,9.43
2023-03-15T10:49:49.618Z,9.30
2023-03-15T10:52:25.407Z,9.15
2023-03-15T10:54:58.773Z,8.68
2023-03-15T10:57:35.115Z,7.86
2023-03-15T11:00:24.010Z,7.20
2023-03-15T11:02:52.900Z,8.80
2023-03-15T11:05:20.103Z,9.90
2023-03-15T11:07:58.839Z,9.25
2023-03-15T11:10:28.248Z,8.94
2023-03-15T11:13:13.471Z,8.03
2023-03-15T11:15:49.416Z,9.07
2023-03-15T11:18:24.849Z,9.01
2023-03-15T11:20:55.409Z,8.33
2023-03-15T11:23:28.909Z,7.72
2023-03-15T11:25:56.197Z,6.95
2023-03-15T11:28:27.339Z,6.52
2023-03-15T11:30:55.830Z,6.19
2023-03-15T11:33:34.054Z,5.82
2023-03-15T11:36:05.406Z,5.90
2023-03-15T11:38:44.512Z,6.08
2023-03-15T11:41:24.104Z,6.54
2023-03-15T11:44:03.040Z,6.52
2023-03-15T11:46:34.542Z,6.96
2023-03-15T11:49:26.088Z,7.59
2023-03-15T11:51:55.854Z,8.34
2023-03-15T11:54:25.017Z,8.30
2023-03-15T11:57:03.099Z,7.74
2023-03-15T11:59:32.622Z,8.48
2023-03-15T12:02:19.332Z,11.68
2023-03-15T12:04:52.953Z,13.81
2023-03-15T12:07:19.537Z,14.00
2023-03-15T12:09:56.260Z,13.84
2023-03-15T12:12:25.804Z,12.70
2023-03-15T12:15:14.494Z,11.76
2023-03-15T12:17:45.628Z,11.85
2023-03-15T12:20:12.065Z,13.06
2023-03-15T12:22:43.489Z,12.55
2023-03-15T12:25:15.679Z,11.98
2023-03-15T12:28:08.781Z,14.09
2023-03-15T12:30:42.211Z,14.76
2023-03-15T12:33:18.178Z,13.94
2023-03-15T12:35:45.204Z,14.17
2023-03-15T12:38:19.973Z,13.54
2023-03-15T12:40:57.675Z,11.94
2023-03-15T12:43:41.671Z,10.45
2023-03-15T12:46:28.129Z,10.34
2023-03-15T12:49:24.029Z,10.52
2023-03-15T12:52:03.256Z,9.89
2023-03-15T12:54:42.934Z,10.36
2023-03-15T12:57:15.072Z,10.06
2023-03-15T13:00:37.741Z,9.58
2023-03-15T13:03:16.781Z,8.99
2023-03-15T13:06:08.744Z,8.39
2023-03-15T13:08:53.450Z,8.19
2023-03-15T13:11:38.622Z,7.82
2023-03-15T13:14:51.499Z,7.64
2023-03-15T13:17:24.096Z,7.67
2023-03-15T13:20:11.164Z,7.19
2023-03-15T13:22:55.786Z,7.89
2023-03-15T13:25:32.857Z,8.17
2023-03-15T13:28:05.650Z,10.77
2023-03-15T13:30:39.227Z,13.83
2023-03-15T13:33:21.253Z,16.49
2023-03-15T13:36:38.997Z,18.25
2023-03-15T13:39:14.653Z,18.85
2023-03-15T13:41:41.151Z,19.61
2023-03-15T13:44:18.054Z,19.61
2023-03-15T13:46:44.712Z,19.98
2023-03-15T13:49:12.703Z,19.04
2023-03-15T13:51:40.243Z,18.81
2023-03-15T13:54:13.570Z,19.21
2023-03-15T13:56:49.710Z,19.60
2023-03-15T13:59:17.869Z,17.44
2023-03-15T14:01:44.750Z,16.39
2023-03-15T14:04:18.472Z,16.73
2023-03-15T14:06:46.017Z,16.84
2023-03-15T14:09:28.714Z,17.17
2023-03-15T14:12:07.129Z,16.79
2023-03-15T14:14:38.190Z,18.03
2023-03-15T14:17:29.549Z,16.67
2023-03-15T14:20:08.904Z,17.18
2023-03-15T14:22:36.543Z,15.40
2023-03-15T14:25:04.289Z,13.95
2023-03-15T14:27:32.831Z,12.05
2023-03-15T14:30:01.770Z,11.12
2023-03-15T14:32:39.052Z,9.80
2023-03-15T14:35:20.174Z,8.69
2023-03-15T14:37:46.713Z,9.84
2023-03-15T14:40:16.699Z,11.36
2023-03-15T14:42:44.280Z,9.90
2023-03-15T14:45:11.433Z,9.22
2023-03-15T14:47:55.024Z,9.23
2023-03-15T14:50:24.305Z,8.53
2023-03-15T14:52:51.394Z,8.07
2023-03-15T14:55:23.835Z,7.89
2023-03-15T14:57:51.422Z,7.70
2023-03-15T15:00:20.782Z,7.65
2023-03-15T15:02:53.263Z,7.49
2023-03-15T15:05:26.178Z,7.62
2023-03-15T15:07:57.222Z,7.62
2023-03-15T15:10:25.216Z,7.71
2023-03-15T15:13:04.826Z,7.54
2023-03-15T15:15:43.698Z,7.40
2023-03-15T15:18:14.812Z,7.38
2023-03-15T15:20:42.547Z,7.24
2023-03-15T15:23:12.574Z,7.18
2023-03-15T15:25:39.114Z,6.70
2023-03-15T15:28:05.655Z,6.32
2023-03-15T15:30:32.165Z,6.57
2023-03-15T15:32:58.732Z,6.56
2023-03-15T15:35:25.978Z,6.93
2023-03-15T15:37:52.658Z,6.76
2023-03-15T15:40:33.048Z,6.92
2023-03-15T15:43:00.708Z,6.99
2023-03-15T15:45:27.236Z,6.96
2023-03-15T15:47:53.678Z,6.88
2023-03-15T15:50:21.110Z,6.67
2023-03-15T15:52:50.590Z,6.55
2023-03-15T15:55:24.566Z,6.44
2023-03-15T15:57:51.915Z,6.46
2023-03-15T16:00:25.222Z,6.66
2023-03-15T16:02:53.695Z,6.63
2023-03-15T16:05:22.890Z,6.55
2023-03-15T16:07:51.110Z,6.47
2023-03-15T16:10:27.351Z,6.39
2023-03-15T16:12:55.560Z,6.31
2023-03-15T16:15:22.142Z,6.33
2023-03-15T16:17:48.683Z,5.87
2023-03-15T16:20:16.476Z,6.01
2023-03-15T16:22:56.189Z,5.96
2023-03-15T16:25:28.551Z,5.76
2023-03-15T16:27:56.380Z,5.71
2023-03-15T16:30:26.075Z,5.73
2023-03-15T16:32:55.737Z,5.68
2023-03-15T16:35:24.346Z,5.77
2023-03-15T16:37:56.248Z,5.78
2023-03-15T16:40:27.353Z,5.74
2023-03-15T16:42:54.494Z,5.72
2023-03-15T16:45:22.398Z,5.70
2023-03-15T16:47:49.228Z,5.58
2023-03-15T16:50:16.698Z,5.52
2023-03-15T16:52:45.711Z,5.43
2023-03-15T16:55:18.780Z,5.45
2023-03-15T16:57:45.272Z,5.36
2023-03-15T17:00:16.968Z,5.24
2023-03-15T17:02:46.741Z,5.09
2023-03-15T17:05:20.797Z,4.87
2023-03-15T17:07:49.710Z,4.89
2023-03-15T17:10:31.012Z,4.62
2023-03-15T17:13:00.628Z,4.59
2023-03-15T17:15:28.296Z,4.43
2023-03-15T17:17:58.568Z,4.20
2023-03-15T17:20:27.284Z,3.99
2023-03-15T17:23:02.681Z,4.08
2023-03-15T17:25:30.889Z,3.95
2023-03-15T17:27:57.377Z,3.86
2023-03-15T17:30:26.921Z,3.78
2023-03-15T17:32:54.033Z,3.69
2023-03-15T17:35:23.454Z,3.60
2023-03-15T17:37:50.633Z,3.39
2023-03-15T17:40:25.098Z,3.18
2023-03-15T17:42:53.208Z,3.01
2023-03-15T17:45:25.348Z,2.86
2023-03-15T17:47:53.945Z,2.71
2023-03-15T17:50:22.943Z,2.73
2023-03-15T17:52:58.272Z,2.59
2023-03-15T17:55:27.609Z,2.45
2023-03-15T17:57:55.592Z,2.31
2023-03-15T18:00:23.941Z,2.14
2023-03-15T18:02:55.696Z,1.97
2023-03-15T18:05:26.220Z,1.95
2023-03-15T18:08:00.626Z,1.83
2023-03-15T18:10:33.620Z,1.67
2023-03-15T18:13:00.038Z,1.50
2023-03-15T18:15:26.521Z,1.38
2023-03-15T18:17:53.010Z,1.28
2023-03-15T18:20:22.044Z,1.18
2023-03-15T18:22:49.279Z,1.11
2023-03-15T18:25:18.913Z,1.03
2023-03-15T18:27:46.160Z,0.99
2023-03-15T18:30:14.428Z,0.89
2023-03-15T18:32:40.991Z,0.82
2023-03-15T18:35:14.043Z,0.71
2023-03-15T18:37:40.577Z,0.67
2023-03-15T18:40:08.553Z,0.67
2023-03-15T18:42:35.038Z,0.59
2023-03-15T18:45:01.513Z,0.47
2023-03-15T18:47:32.475Z,0.37
2023-03-15T18:50:09.575Z,0.19
2023-03-15T18:52:39.965Z,0.04
2023-03-15T18:55:07.827Z,0.05
2023-03-15T18:57:35.990Z,0.06
2023-03-15T19:00:13.033Z,0.08
2023-03-15T19:02:46.804Z,0.14
2023-03-15T19:05:14.459Z,0.03
2023-03-15T19:07:41.710Z,0.04
2023-03-15T19:10:13.571Z,0.12
2023-03-15T19:12:41.259Z,-0.01
2023-03-15T19:15:12.837Z,-0.27
2023-03-15T19:17:39.590Z,-0.24
2023-03-15T19:20:07.779Z,-0.33
2023-03-15T19:22:34.679Z,-0.36
2023-03-15T19:25:01.173Z,-0.42
2023-03-15T19:27:27.727Z,-0.40
2023-03-15T19:29:54.139Z,-0.35
2023-03-15T19:32:20.827Z,-0.42
2023-03-15T19:34:47.635Z,-0.56
2023-03-15T19:37:14.133Z,-0.60
2023-03-15T19:39:40.670Z,-0.69
2023-03-15T19:42:08.137Z,-0.66
2023-03-15T19:44:36.083Z,-0.67
2023-03-15T19:47:02.778Z,-0.67
2023-03-15T19:49:29.238Z,-0.71
2023-03-15T19:51:55.920Z,-0.78
2023-03-15T19:54:22.666Z,-0.86
2023-03-15T19:56:49.108Z,-0.71
2023-03-15T19:59:15.776Z,-0.76
2023-03-15T20:01:42.379Z,-0.74
2023-03-15T20:04:09.021Z,-0.94
2023-03-15T20:06:35.763Z,-1.12
2023-03-15T20:09:02.727Z,-1.15
2023-03-15T20:11:30.097Z,-1.18
2023-03-15T20:13:56.642Z,-1.18
2023-03-15T20:16:23.543Z,-1.17
2023-03-15T20:18:55.250Z,-1.21
2023-03-15T20:21:22.228Z,-1.16
2023-03-15T20:23:49.160Z,-1.22
2023-03-15T20:26:17.624Z,-1.23
2023-03-15T20:28:44.705Z,-1.20
2023-03-15T20:31:17.022Z,-1.24
2023-03-15T20:33:45.724Z,-1.22
2023-03-15T20:36:12.485Z,-1.23
2023-03-15T20:38:39.252Z,-1.25
2023-03-15T20:41:06.929Z,-1.38
2023-03-15T20:43:33.880Z,-1.60
2023-03-15T20:46:03.196Z,-1.53
2023-03-15T20:48:32.075Z,-1.32
2023-03-15T20:50:58.908Z,-1.37
2023-03-15T20:53:26.132Z,-1.64
2023-03-15T20:55:52.760Z,-1.53
2023-03-15T20:58:19.422Z,-1.47
2023-03-15T21:00:46.120Z,-1.35
2023-03-15T21:03:14.892Z,-1.41
2023-03-15T21:05:44.887Z,-1.52
2023-03-15T21:08:13.982Z,-1.51
2023-03-15T21:10:40.750Z,-1.39
2023-03-15T21:13:10.041Z,-1.50
2023-03-15T21:15:47.327Z,-1.53
2023-03-15T21:18:15.910Z,-1.60
2023-03-15T21:20:43.171Z,-1.70
2023-03-15T21:23:10.911Z,-1.77
2023-03-15T21:25:37.853Z,-1.79
2023-03-15T21:28:04.547Z,-1.83
2023-03-15T21:30:32.113Z,-1.82
2023-03-15T21:32:58.663Z,-1.85
2023-03-15T21:35:25.579Z,-1.86
2023-03-15T21:37:52.037Z,-1.87
2023-03-15T21:40:18.514Z,-1.85
2023-03-15T21:42:47.784Z,-1.83
2023-03-15T21:45:14.802Z,-1.89
2023-03-15T21:47:41.511Z,-2.00
2023-03-15T21:50:09.048Z,-1.83
2023-03-15T21:52:35.445Z,-1.87
2023-03-15T21:55:01.860Z,-2.05
2023-03-15T21:57:28.354Z,-2.07
2023-03-15T21:59:54.809Z,-2.07
2023-03-15T22:02:21.955Z,-1.91
2023-03-15T22:04:48.431Z,-1.93
2023-03-15T22:07:14.955Z,-1.77
2023-03-15T22:09:43.070Z,-1.84
2023-03-15T22:12:09.720Z,-1.99
2023-03-15T22:14:36.179Z,-2.07
2023-03-15T22:17:04.973Z,-2.27
2023-03-15T22:19:32.208Z,-2.26
2023-03-15T22:21:58.923Z,-2.11
2023-03-15T22:24:25.379Z,-2.04
2023-03-15T22:26:53.048Z,-2.10
2023-03-15T22:29:20.186Z,-2.01
2023-03-15T22:31:46.619Z,-2.02
2023-03-15T22:34:13.147Z,-2.00
2023-03-15T22:36:39.603Z,-2.07
2023-03-15T22:39:06.053Z,-2.03
2023-03-15T22:41:32.606Z,-2.10
2023-03-15T22:43:59.043Z,-2.13
2023-03-15T22:46:26.987Z,-2.09
2023-03-15T22:48:54.195Z,-2.00
2023-03-15T22:51:20.626Z,-1.99
2023-03-15T22:53:47.152Z,-2.08
2023-03-15T22:56:14.405Z,-2.10
2023-03-15T22:58:40.927Z,-2.45
2023-03-15T23:01:07.823Z,-2.53
2023-03-15T23:03:34.342Z,-2.48
2023-03-15T23:06:00.805Z,-2.36
2023-03-15T23:08:27.437Z,-2.09
2023-03-15T23:10:57.190Z,-2.14
2023-03-15T23:13:23.690Z,-2.24
2023-03-15T23:15:50.274Z,-2.36
2023-03-15T23:18:16.739Z,-2.34
2023-03-15T23:20:43.258Z,-2.39
2023-03-15T23:23:09.977Z,-2.40
2023-03-15T23:25:38.789Z,-2.36
2023-03-15T23:28:06.563Z,-2.41
2023-03-15T23:30:35.576Z,-2.50
2023-03-15T23:33:03.648Z,-2.52
2023-03-15T23:35:31.363Z,-2.44
2023-03-15T23:37:58.029Z,-2.53
2023-03-15T23:40:25.751Z,-2.56
2023-03-15T23:42:58.954Z,-2.64
2023-03-15T23:45:27.690Z,-2.74
2023-03-15T23:47:54.219Z,-2.77
2023-03-15T23:50:22.091Z,-2.69
2023-03-15T23:52:48.562Z,-2.60
2023-03-15T23:55:14.970Z,-2.71
2023-03-15T23:57:44.786Z,-2.80
